Terminal Aerodrome Forecast
Issued by NWS

Home | Current Version | Previous Version | Text Only | Print | Product List | Glossary Off
Versions: 1 2 3 4 5 6 7 8 9 10 11 12 13 14 15 16 17 18 19 20 21 22 23

000
FTUS43 KMPX 260353 AAA
TAFRWF
TAF AMD
KRWF 260353Z 2604/2624 15006KT 6SM SHRA VCTS SCT050CB OVC100
     FM260700 15006KT P6SM BKN120
     FM261500 17008KT P6SM SCT040=

USA.gov is the U.S. government's official web portal to all federal, state and local government web resources and services.